Scottsbluff, NE (69361)

8:01 AM MST on December 03, 2016 (GMT -0700)
KNEB Radio | | Change Station

Elev 3878 ft 41.86 °N, 103.64 °W | Updated 9 minutes ago

Clear
Clear
16.1 °F
Feels Like 16 °F
N
2.0
Wind Variable Wind from ENE
Gusts 2.0 mph

Today
High -- | Low -- °F
--% Chance of Precip.
Yesterday
High -- | Low -- °F
Precip. -- in
Pressure 30.13 in
Visibility 10.0 miles
Clouds Clear
Windchill 16 °F
Dew Point 13 °F
Humidity 87%
Rainfall 0.00 in
Snow Depth Not available.
7:05 AM 4:23 PM
Waxing Crescent, 15% visible
METAR KBFF 031453Z AUTO 10005KT 10SM CLR M07/M11 A3000 RMK AO2 SLP203 T10721106 56011
Pressure 30.13 in
Visibility 10.0 miles
Clouds Clear
Windchill 16 °F
Dew Point 13 °F
Humidity 87%
Rainfall 0.00 in
Snow Depth Not available.
7:05 AM 4:23 PM
Waxing Crescent, 15% visible
METAR KBFF 031453Z AUTO 10005KT 10SM CLR M07/M11 A3000 RMK AO2 SLP203 T10721106 56011

10-Day Weather Forecast

Almanac

Astronomy

Dec. 03, 2016 Rise Set
Actual Time
Civil Twilight
Nautical Twilight
Astronomical Twilight
Moon
Length of Visible Light
Length of Day
Tomorrow will be .
, % of the Moon is Illuminated

Today's Extremes

State Highs State Lows

Community

WunderPhotos

Upload Photos

1,955,456 photos uploaded!

WunderBlog® & News

Nearby

Air Quality

  Air Quality AQ Index Pollutant
Not available.

Snow Depth

Station Depth Elevation

Earthquake Activity

City Distance Mag. Time & Date
Minimum magnitude displayed is 2.5.

Coastal Water Temperatures

Place Temperature

Stations

Nearby Weather Stations

Station Location Temp. Windchill Dew Point Humidity Wind Precip. Elev Updated Type
                   

Watches & Warnings

There are currently no watches in effect.